sensor_id;sensor_type;location;lat;lon;timestamp;P1;durP1;ratioP1;P2;durP2;ratioP2
39448;SDS011;25151;45.566;9.382;2023-02-22T00:03:00;4.78;;;4.13;;
39448;SDS011;25151;45.566;9.382;2023-02-22T00:06:01;5.80;;;4.03;;
39448;SDS011;25151;45.566;9.382;2023-02-22T00:09:04;5.55;;;4.32;;
39448;SDS011;25151;45.566;9.382;2023-02-22T00:12:05;4.60;;;4.10;;
39448;SDS011;25151;45.566;9.382;2023-02-22T00:15:08;6.07;;;4.50;;
39448;SDS011;25151;45.566;9.382;2023-02-22T00:18:12;6.00;;;4.45;;
39448;SDS011;25151;45.566;9.382;2023-02-22T00:21:15;5.32;;;4.07;;
39448;SDS011;25151;45.566;9.382;2023-02-22T00:24:16;6.75;;;4.72;;
39448;SDS011;25151;45.566;9.382;2023-02-22T00:27:22;4.95;;;4.35;;
39448;SDS011;25151;45.566;9.382;2023-02-22T00:30:24;5.88;;;4.50;;
39448;SDS011;25151;45.566;9.382;2023-02-22T00:33:26;4.82;;;4.15;;
39448;SDS011;25151;45.566;9.382;2023-02-22T00:36:27;5.10;;;4.35;;
39448;SDS011;25151;45.566;9.382;2023-02-22T00:39:27;5.93;;;4.63;;
39448;SDS011;25151;45.566;9.382;2023-02-22T00:42:28;5.68;;;4.30;;
39448;SDS011;25151;45.566;9.382;2023-02-22T00:45:29;5.07;;;4.20;;
39448;SDS011;25151;45.566;9.382;2023-02-22T00:48:31;6.25;;;4.55;;
39448;SDS011;25151;45.566;9.382;2023-02-22T00:51:32;4.65;;;4.15;;
39448;SDS011;25151;45.566;9.382;2023-02-22T00:54:33;5.03;;;4.18;;
39448;SDS011;25151;45.566;9.382;2023-02-22T00:57:34;5.43;;;4.35;;
39448;SDS011;25151;45.566;9.382;2023-02-22T01:00:36;6.50;;;4.45;;
39448;SDS011;25151;45.566;9.382;2023-02-22T01:03:39;5.32;;;4.18;;
39448;SDS011;25151;45.566;9.382;2023-02-22T01:06:42;4.90;;;4.20;;
39448;SDS011;25151;45.566;9.382;2023-02-22T01:09:42;6.85;;;3.95;;
39448;SDS011;25151;45.566;9.382;2023-02-22T01:12:43;4.65;;;3.85;;
39448;SDS011;25151;45.566;9.382;2023-02-22T01:15:45;5.07;;;4.45;;
39448;SDS011;25151;45.566;9.382;2023-02-22T01:18:45;5.03;;;3.83;;
39448;SDS011;25151;45.566;9.382;2023-02-22T01:21:47;4.07;;;3.67;;
39448;SDS011;25151;45.566;9.382;2023-02-22T01:24:49;5.75;;;4.32;;
39448;SDS011;25151;45.566;9.382;2023-02-22T01:27:50;5.80;;;4.45;;
39448;SDS011;25151;45.566;9.382;2023-02-22T01:30:52;4.97;;;4.28;;
39448;SDS011;25151;45.566;9.382;2023-02-22T01:33:55;5.63;;;4.28;;
39448;SDS011;25151;45.566;9.382;2023-02-22T01:36:56;6.00;;;4.85;;
39448;SDS011;25151;45.566;9.382;2023-02-22T01:39:57;6.10;;;4.45;;
39448;SDS011;25151;45.566;9.382;2023-02-22T01:42:59;6.30;;;4.63;;
39448;SDS011;25151;45.566;9.382;2023-02-22T01:49:07;5.55;;;4.30;;
39448;SDS011;25151;45.566;9.382;2023-02-22T01:52:10;5.28;;;4.00;;
39448;SDS011;25151;45.566;9.382;2023-02-22T01:55:14;5.10;;;4.50;;
39448;SDS011;25151;45.566;9.382;2023-02-22T01:58:17;5.97;;;4.53;;
39448;SDS011;25151;45.566;9.382;2023-02-22T02:01:19;6.00;;;4.47;;
39448;SDS011;25151;45.566;9.382;2023-02-22T02:04:22;5.43;;;4.15;;
39448;SDS011;25151;45.566;9.382;2023-02-22T02:07:24;6.35;;;4.72;;
39448;SDS011;25151;45.566;9.382;2023-02-22T02:10:25;4.80;;;4.25;;
39448;SDS011;25151;45.566;9.382;2023-02-22T02:13:26;6.72;;;4.78;;
39448;SDS011;25151;45.566;9.382;2023-02-22T02:16:38;6.07;;;4.38;;
39448;SDS011;25151;45.566;9.382;2023-02-22T02:26:54;5.70;;;4.38;;
39448;SDS011;25151;45.566;9.382;2023-02-22T02:37:06;4.82;;;3.80;;
39448;SDS011;25151;45.566;9.382;2023-02-22T02:40:22;5.00;;;4.45;;
39448;SDS011;25151;45.566;9.382;2023-02-22T02:43:36;5.50;;;4.38;;
39448;SDS011;25151;45.566;9.382;2023-02-22T02:46:49;5.35;;;4.60;;
39448;SDS011;25151;45.566;9.382;2023-02-22T02:53:16;5.40;;;4.32;;
39448;SDS011;25151;45.566;9.382;2023-02-22T02:56:21;5.18;;;3.97;;
39448;SDS011;25151;45.566;9.382;2023-02-22T02:59:30;5.10;;;4.25;;
39448;SDS011;25151;45.566;9.382;2023-02-22T03:09:35;4.63;;;4.18;;
39448;SDS011;25151;45.566;9.382;2023-02-22T03:12:42;4.60;;;3.90;;
39448;SDS011;25151;45.566;9.382;2023-02-22T03:16:11;6.38;;;4.70;;
39448;SDS011;25151;45.566;9.382;2023-02-22T03:22:52;5.15;;;4.47;;
39448;SDS011;25151;45.566;9.382;2023-02-22T03:26:06;5.22;;;4.38;;
39448;SDS011;25151;45.566;9.382;2023-02-22T03:29:12;5.32;;;4.70;;
39448;SDS011;25151;45.566;9.382;2023-02-22T03:32:17;5.38;;;4.88;;
39448;SDS011;25151;45.566;9.382;2023-02-22T03:35:27;6.70;;;4.75;;
39448;SDS011;25151;45.566;9.382;2023-02-22T03:38:32;5.15;;;4.05;;
39448;SDS011;25151;45.566;9.382;2023-02-22T03:41:36;4.80;;;4.30;;
39448;SDS011;25151;45.566;9.382;2023-02-22T03:44:39;4.90;;;4.40;;
39448;SDS011;25151;45.566;9.382;2023-02-22T03:47:44;7.55;;;4.72;;
39448;SDS011;25151;45.566;9.382;2023-02-22T03:50:51;5.38;;;4.88;;
39448;SDS011;25151;45.566;9.382;2023-02-22T03:53:53;6.60;;;4.88;;
39448;SDS011;25151;45.566;9.382;2023-02-22T04:00:25;6.93;;;5.25;;
39448;SDS011;25151;45.566;9.382;2023-02-22T04:03:32;5.45;;;4.85;;
39448;SDS011;25151;45.566;9.382;2023-02-22T04:06:32;6.75;;;5.18;;
39448;SDS011;25151;45.566;9.382;2023-02-22T04:09:33;5.72;;;4.47;;
39448;SDS011;25151;45.566;9.382;2023-02-22T04:12:34;7.22;;;5.13;;
39448;SDS011;25151;45.566;9.382;2023-02-22T04:15:35;5.78;;;4.72;;
39448;SDS011;25151;45.566;9.382;2023-02-22T04:18:36;5.97;;;5.18;;
39448;SDS011;25151;45.566;9.382;2023-02-22T04:21:37;5.75;;;5.15;;
39448;SDS011;25151;45.566;9.382;2023-02-22T04:24:37;6.72;;;5.10;;
39448;SDS011;25151;45.566;9.382;2023-02-22T04:27:38;6.90;;;5.65;;
39448;SDS011;25151;45.566;9.382;2023-02-22T04:30:38;6.03;;;5.30;;
39448;SDS011;25151;45.566;9.382;2023-02-22T04:33:39;5.65;;;4.93;;
39448;SDS011;25151;45.566;9.382;2023-02-22T04:36:40;7.70;;;4.90;;
39448;SDS011;25151;45.566;9.382;2023-02-22T04:39:43;6.47;;;5.40;;
39448;SDS011;25151;45.566;9.382;2023-02-22T04:42:44;7.03;;;5.78;;
39448;SDS011;25151;45.566;9.382;2023-02-22T04:45:45;5.75;;;4.95;;
39448;SDS011;25151;45.566;9.382;2023-02-22T04:48:45;5.88;;;5.20;;
39448;SDS011;25151;45.566;9.382;2023-02-22T04:51:46;5.82;;;5.22;;
39448;SDS011;25151;45.566;9.382;2023-02-22T04:57:47;5.55;;;5.05;;
39448;SDS011;25151;45.566;9.382;2023-02-22T05:00:48;8.73;;;5.35;;
39448;SDS011;25151;45.566;9.382;2023-02-22T05:03:49;7.97;;;5.45;;
39448;SDS011;25151;45.566;9.382;2023-02-22T05:06:49;6.53;;;5.45;;
39448;SDS011;25151;45.566;9.382;2023-02-22T05:09:50;6.93;;;5.72;;
39448;SDS011;25151;45.566;9.382;2023-02-22T05:12:51;6.03;;;5.43;;
39448;SDS011;25151;45.566;9.382;2023-02-22T05:15:52;5.88;;;5.10;;
39448;SDS011;25151;45.566;9.382;2023-02-22T05:18:53;7.43;;;5.18;;
39448;SDS011;25151;45.566;9.382;2023-02-22T05:21:55;8.43;;;5.70;;
39448;SDS011;25151;45.566;9.382;2023-02-22T05:24:55;6.03;;;5.43;;
39448;SDS011;25151;45.566;9.382;2023-02-22T05:27:57;6.90;;;5.57;;
39448;SDS011;25151;45.566;9.382;2023-02-22T05:31:03;6.97;;;6.28;;
39448;SDS011;25151;45.566;9.382;2023-02-22T05:34:04;7.00;;;5.45;;
39448;SDS011;25151;45.566;9.382;2023-02-22T05:37:04;7.57;;;6.57;;
39448;SDS011;25151;45.566;9.382;2023-02-22T05:40:06;6.80;;;6.00;;
39448;SDS011;25151;45.566;9.382;2023-02-22T05:43:07;7.47;;;6.13;;
39448;SDS011;25151;45.566;9.382;2023-02-22T05:46:08;6.93;;;5.82;;
39448;SDS011;25151;45.566;9.382;2023-02-22T05:49:09;6.57;;;5.85;;
39448;SDS011;25151;45.566;9.382;2023-02-22T05:52:09;5.85;;;5.22;;
39448;SDS011;25151;45.566;9.382;2023-02-22T05:55:12;6.68;;;5.28;;
39448;SDS011;25151;45.566;9.382;2023-02-22T05:58:14;7.10;;;6.25;;
39448;SDS011;25151;45.566;9.382;2023-02-22T06:01:14;7.25;;;6.20;;
39448;SDS011;25151;45.566;9.382;2023-02-22T06:04:15;6.78;;;5.97;;
39448;SDS011;25151;45.566;9.382;2023-02-22T06:07:16;9.50;;;6.45;;
39448;SDS011;25151;45.566;9.382;2023-02-22T06:13:17;6.20;;;5.60;;
39448;SDS011;25151;45.566;9.382;2023-02-22T06:16:18;5.82;;;5.22;;
39448;SDS011;25151;45.566;9.382;2023-02-22T06:19:20;7.40;;;6.47;;
39448;SDS011;25151;45.566;9.382;2023-02-22T06:22:21;7.78;;;6.70;;
39448;SDS011;25151;45.566;9.382;2023-02-22T06:25:23;7.13;;;6.15;;
39448;SDS011;25151;45.566;9.382;2023-02-22T06:28:26;7.65;;;6.15;;
39448;SDS011;25151;45.566;9.382;2023-02-22T06:31:26;7.50;;;6.18;;
39448;SDS011;25151;45.566;9.382;2023-02-22T06:34:27;6.47;;;5.88;;
39448;SDS011;25151;45.566;9.382;2023-02-22T06:37:28;7.30;;;6.57;;
39448;SDS011;25151;45.566;9.382;2023-02-22T06:40:28;7.80;;;6.47;;
39448;SDS011;25151;45.566;9.382;2023-02-22T06:43:29;9.00;;;6.65;;
39448;SDS011;25151;45.566;9.382;2023-02-22T06:49:30;12.07;;;6.30;;
39448;SDS011;25151;45.566;9.382;2023-02-22T06:52:31;7.70;;;6.45;;
39448;SDS011;25151;45.566;9.382;2023-02-22T06:55:34;8.63;;;6.40;;
39448;SDS011;25151;45.566;9.382;2023-02-22T06:58:34;8.25;;;6.15;;
39448;SDS011;25151;45.566;9.382;2023-02-22T07:01:35;9.50;;;6.78;;
39448;SDS011;25151;45.566;9.382;2023-02-22T07:04:36;7.05;;;6.32;;
39448;SDS011;25151;45.566;9.382;2023-02-22T07:07:38;8.38;;;6.40;;
39448;SDS011;25151;45.566;9.382;2023-02-22T07:10:39;7.15;;;5.97;;
39448;SDS011;25151;45.566;9.382;2023-02-22T07:13:39;8.43;;;6.18;;
39448;SDS011;25151;45.566;9.382;2023-02-22T07:19:41;10.93;;;7.27;;
39448;SDS011;25151;45.566;9.382;2023-02-22T07:22:42;9.60;;;6.07;;
39448;SDS011;25151;45.566;9.382;2023-02-22T07:25:42;7.43;;;5.80;;
39448;SDS011;25151;45.566;9.382;2023-02-22T07:28:43;7.72;;;6.28;;
39448;SDS011;25151;45.566;9.382;2023-02-22T07:31:44;9.43;;;7.45;;
39448;SDS011;25151;45.566;9.382;2023-02-22T07:34:46;10.57;;;5.90;;
39448;SDS011;25151;45.566;9.382;2023-02-22T07:37:46;9.80;;;7.60;;
39448;SDS011;25151;45.566;9.382;2023-02-22T07:40:47;7.68;;;6.85;;
39448;SDS011;25151;45.566;9.382;2023-02-22T07:43:48;10.48;;;7.55;;
39448;SDS011;25151;45.566;9.382;2023-02-22T07:46:48;9.50;;;7.40;;
39448;SDS011;25151;45.566;9.382;2023-02-22T07:49:49;11.85;;;7.85;;
39448;SDS011;25151;45.566;9.382;2023-02-22T07:52:52;7.82;;;6.80;;
39448;SDS011;25151;45.566;9.382;2023-02-22T07:56:01;7.88;;;6.57;;
39448;SDS011;25151;45.566;9.382;2023-02-22T07:59:04;8.38;;;7.15;;
39448;SDS011;25151;45.566;9.382;2023-02-22T08:02:08;7.72;;;6.90;;
39448;SDS011;25151;45.566;9.382;2023-02-22T08:05:15;8.85;;;7.40;;
39448;SDS011;25151;45.566;9.382;2023-02-22T08:08:25;12.65;;;8.05;;
39448;SDS011;25151;45.566;9.382;2023-02-22T08:11:47;12.88;;;8.77;;
39448;SDS011;25151;45.566;9.382;2023-02-22T08:14:48;12.25;;;9.25;;
39448;SDS011;25151;45.566;9.382;2023-02-22T08:18:00;11.65;;;9.27;;
39448;SDS011;25151;45.566;9.382;2023-02-22T08:21:08;12.05;;;9.57;;
39448;SDS011;25151;45.566;9.382;2023-02-22T08:24:13;12.23;;;10.07;;
39448;SDS011;25151;45.566;9.382;2023-02-22T08:27:26;12.23;;;9.88;;
39448;SDS011;25151;45.566;9.382;2023-02-22T08:30:30;17.00;;;12.35;;
39448;SDS011;25151;45.566;9.382;2023-02-22T08:33:33;13.88;;;10.93;;
39448;SDS011;25151;45.566;9.382;2023-02-22T08:36:34;14.05;;;11.43;;
39448;SDS011;25151;45.566;9.382;2023-02-22T08:39:35;14.63;;;10.82;;
39448;SDS011;25151;45.566;9.382;2023-02-22T08:42:51;16.35;;;11.63;;
39448;SDS011;25151;45.566;9.382;2023-02-22T08:45:52;14.57;;;11.90;;
39448;SDS011;25151;45.566;9.382;2023-02-22T08:49:00;20.13;;;11.35;;
39448;SDS011;25151;45.566;9.382;2023-02-22T08:55:49;16.27;;;12.55;;
39448;SDS011;25151;45.566;9.382;2023-02-22T08:58:50;16.20;;;12.23;;
39448;SDS011;25151;45.566;9.382;2023-02-22T09:01:51;13.73;;;11.43;;
39448;SDS011;25151;45.566;9.382;2023-02-22T09:04:52;15.07;;;10.98;;
39448;SDS011;25151;45.566;9.382;2023-02-22T09:07:56;18.25;;;12.10;;
39448;SDS011;25151;45.566;9.382;2023-02-22T09:11:03;14.02;;;11.85;;
39448;SDS011;25151;45.566;9.382;2023-02-22T09:14:04;17.50;;;11.77;;
39448;SDS011;25151;45.566;9.382;2023-02-22T09:17:05;15.27;;;11.60;;
39448;SDS011;25151;45.566;9.382;2023-02-22T09:20:06;17.67;;;12.65;;
39448;SDS011;25151;45.566;9.382;2023-02-22T09:23:09;14.10;;;11.43;;
39448;SDS011;25151;45.566;9.382;2023-02-22T09:26:10;16.20;;;11.60;;
39448;SDS011;25151;45.566;9.382;2023-02-22T09:29:10;14.48;;;11.57;;
39448;SDS011;25151;45.566;9.382;2023-02-22T09:32:11;14.25;;;11.10;;
39448;SDS011;25151;45.566;9.382;2023-02-22T09:35:12;14.00;;;11.20;;
39448;SDS011;25151;45.566;9.382;2023-02-22T09:38:13;12.95;;;10.98;;
39448;SDS011;25151;45.566;9.382;2023-02-22T09:41:24;13.93;;;11.43;;
39448;SDS011;25151;45.566;9.382;2023-02-22T09:44:34;14.82;;;11.80;;
39448;SDS011;25151;45.566;9.382;2023-02-22T09:47:42;13.50;;;10.60;;
39448;SDS011;25151;45.566;9.382;2023-02-22T09:50:50;13.57;;;10.70;;
39448;SDS011;25151;45.566;9.382;2023-02-22T09:53:58;13.20;;;10.90;;
39448;SDS011;25151;45.566;9.382;2023-02-22T09:57:04;16.65;;;13.02;;
39448;SDS011;25151;45.566;9.382;2023-02-22T10:00:12;13.80;;;10.93;;
39448;SDS011;25151;45.566;9.382;2023-02-22T10:03:29;15.45;;;12.38;;
39448;SDS011;25151;45.566;9.382;2023-02-22T10:06:36;16.00;;;12.00;;
39448;SDS011;25151;45.566;9.382;2023-02-22T10:09:42;14.00;;;11.02;;
39448;SDS011;25151;45.566;9.382;2023-02-22T10:12:52;14.77;;;11.77;;
39448;SDS011;25151;45.566;9.382;2023-02-22T10:16:30;14.00;;;11.70;;
39448;SDS011;25151;45.566;9.382;2023-02-22T10:23:10;15.57;;;12.57;;
39448;SDS011;25151;45.566;9.382;2023-02-22T10:26:25;14.73;;;12.02;;
39448;SDS011;25151;45.566;9.382;2023-02-22T10:29:40;13.82;;;10.77;;
39448;SDS011;25151;45.566;9.382;2023-02-22T10:32:47;16.23;;;12.20;;
39448;SDS011;25151;45.566;9.382;2023-02-22T10:35:54;12.77;;;11.00;;
39448;SDS011;25151;45.566;9.382;2023-02-22T10:38:59;14.18;;;10.98;;
39448;SDS011;25151;45.566;9.382;2023-02-22T10:42:11;13.00;;;11.43;;
39448;SDS011;25151;45.566;9.382;2023-02-22T10:45:25;13.18;;;10.85;;
39448;SDS011;25151;45.566;9.382;2023-02-22T10:48:33;14.45;;;11.50;;
39448;SDS011;25151;45.566;9.382;2023-02-22T10:51:37;13.45;;;12.00;;
39448;SDS011;25151;45.566;9.382;2023-02-22T10:54:41;12.95;;;11.65;;
39448;SDS011;25151;45.566;9.382;2023-02-22T10:57:48;14.80;;;10.73;;
39448;SDS011;25151;45.566;9.382;2023-02-22T11:00:51;14.48;;;11.35;;
39448;SDS011;25151;45.566;9.382;2023-02-22T11:03:56;14.02;;;11.93;;
39448;SDS011;25151;45.566;9.382;2023-02-22T11:09:59;14.38;;;11.18;;
39448;SDS011;25151;45.566;9.382;2023-02-22T11:13:09;13.85;;;11.93;;
39448;SDS011;25151;45.566;9.382;2023-02-22T11:16:18;14.05;;;12.23;;
39448;SDS011;25151;45.566;9.382;2023-02-22T11:19:21;15.30;;;12.40;;
39448;SDS011;25151;45.566;9.382;2023-02-22T11:22:25;12.73;;;11.43;;
39448;SDS011;25151;45.566;9.382;2023-02-22T11:25:38;15.20;;;11.63;;
39448;SDS011;25151;45.566;9.382;2023-02-22T11:28:43;14.57;;;11.07;;
39448;SDS011;25151;45.566;9.382;2023-02-22T11:31:50;13.48;;;11.18;;
39448;SDS011;25151;45.566;9.382;2023-02-22T11:34:51;17.65;;;12.73;;
39448;SDS011;25151;45.566;9.382;2023-02-22T11:38:15;14.05;;;11.13;;
39448;SDS011;25151;45.566;9.382;2023-02-22T11:41:25;14.25;;;10.60;;
39448;SDS011;25151;45.566;9.382;2023-02-22T11:44:29;15.38;;;12.15;;
39448;SDS011;25151;45.566;9.382;2023-02-22T11:47:31;13.30;;;11.65;;
39448;SDS011;25151;45.566;9.382;2023-02-22T11:57:37;15.55;;;11.40;;
39448;SDS011;25151;45.566;9.382;2023-02-22T12:04:25;12.40;;;10.52;;
39448;SDS011;25151;45.566;9.382;2023-02-22T12:08:47;12.18;;;10.77;;
39448;SDS011;25151;45.566;9.382;2023-02-22T12:11:24;11.15;;;10.05;;
39448;SDS011;25151;45.566;9.382;2023-02-22T12:18:40;13.43;;;9.77;;
39448;SDS011;25151;45.566;9.382;2023-02-22T12:21:25;10.35;;;9.27;;
39448;SDS011;25151;45.566;9.382;2023-02-22T12:24:52;11.57;;;10.27;;
39448;SDS011;25151;45.566;9.382;2023-02-22T12:31:29;10.93;;;9.82;;
39448;SDS011;25151;45.566;9.382;2023-02-22T12:34:45;10.65;;;9.20;;
39448;SDS011;25151;45.566;9.382;2023-02-22T12:41:11;15.57;;;10.10;;
39448;SDS011;25151;45.566;9.382;2023-02-22T12:44:19;11.00;;;9.73;;
39448;SDS011;25151;45.566;9.382;2023-02-22T12:47:29;10.93;;;9.73;;
39448;SDS011;25151;45.566;9.382;2023-02-22T12:50:35;10.80;;;9.17;;
39448;SDS011;25151;45.566;9.382;2023-02-22T12:53:37;11.52;;;9.98;;
39448;SDS011;25151;45.566;9.382;2023-02-22T13:00:03;11.10;;;9.18;;
39448;SDS011;25151;45.566;9.382;2023-02-22T13:09:56;10.32;;;9.23;;
39448;SDS011;25151;45.566;9.382;2023-02-22T13:13:23;11.25;;;9.82;;
39448;SDS011;25151;45.566;9.382;2023-02-22T13:23:02;11.82;;;9.73;;
39448;SDS011;25151;45.566;9.382;2023-02-22T13:33:10;11.03;;;9.33;;
39448;SDS011;25151;45.566;9.382;2023-02-22T13:36:18;13.57;;;10.13;;
39448;SDS011;25151;45.566;9.382;2023-02-22T13:39:39;11.32;;;9.23;;
39448;SDS011;25151;45.566;9.382;2023-02-22T13:43:16;9.85;;;8.50;;
39448;SDS011;25151;45.566;9.382;2023-02-22T13:47:02;12.70;;;9.93;;
39448;SDS011;25151;45.566;9.382;2023-02-22T13:50:32;11.88;;;8.65;;
39448;SDS011;25151;45.566;9.382;2023-02-22T13:54:05;9.52;;;8.48;;
39448;SDS011;25151;45.566;9.382;2023-02-22T13:57:21;10.77;;;9.02;;
39448;SDS011;25151;45.566;9.382;2023-02-22T14:00:48;10.73;;;9.23;;
39448;SDS011;25151;45.566;9.382;2023-02-22T14:03:50;11.68;;;9.65;;
39448;SDS011;25151;45.566;9.382;2023-02-22T14:20:20;10.88;;;9.55;;
39448;SDS011;25151;45.566;9.382;2023-02-22T14:23:33;10.52;;;9.32;;
39448;SDS011;25151;45.566;9.382;2023-02-22T14:26:35;11.05;;;9.85;;
39448;SDS011;25151;45.566;9.382;2023-02-22T14:29:43;11.30;;;9.70;;
39448;SDS011;25151;45.566;9.382;2023-02-22T14:32:59;10.32;;;9.05;;
39448;SDS011;25151;45.566;9.382;2023-02-22T14:36:00;11.65;;;10.20;;
39448;SDS011;25151;45.566;9.382;2023-02-22T14:39:09;13.65;;;11.18;;
39448;SDS011;25151;45.566;9.382;2023-02-22T14:45:31;12.75;;;10.65;;
39448;SDS011;25151;45.566;9.382;2023-02-22T14:48:39;10.80;;;9.68;;
39448;SDS011;25151;45.566;9.382;2023-02-22T14:51:43;12.35;;;11.02;;
39448;SDS011;25151;45.566;9.382;2023-02-22T14:54:55;15.13;;;10.02;;
39448;SDS011;25151;45.566;9.382;2023-02-22T14:58:07;12.00;;;10.57;;
39448;SDS011;25151;45.566;9.382;2023-02-22T15:01:32;11.15;;;9.80;;
39448;SDS011;25151;45.566;9.382;2023-02-22T15:04:36;13.55;;;10.40;;
39448;SDS011;25151;45.566;9.382;2023-02-22T15:07:37;12.27;;;10.80;;
39448;SDS011;25151;45.566;9.382;2023-02-22T15:10:42;12.27;;;11.07;;
39448;SDS011;25151;45.566;9.382;2023-02-22T15:13:48;15.25;;;11.50;;
39448;SDS011;25151;45.566;9.382;2023-02-22T15:16:51;12.82;;;11.18;;
39448;SDS011;25151;45.566;9.382;2023-02-22T15:19:58;15.15;;;11.68;;
39448;SDS011;25151;45.566;9.382;2023-02-22T15:22:59;13.63;;;11.88;;
39448;SDS011;25151;45.566;9.382;2023-02-22T15:26:01;12.80;;;11.07;;
39448;SDS011;25151;45.566;9.382;2023-02-22T15:29:09;12.70;;;11.40;;
39448;SDS011;25151;45.566;9.382;2023-02-22T15:32:19;12.93;;;10.93;;
39448;SDS011;25151;45.566;9.382;2023-02-22T15:35:31;17.30;;;12.18;;
39448;SDS011;25151;45.566;9.382;2023-02-22T15:38:32;13.05;;;11.10;;
39448;SDS011;25151;45.566;9.382;2023-02-22T15:41:46;13.15;;;10.20;;
39448;SDS011;25151;45.566;9.382;2023-02-22T15:44:50;14.15;;;10.75;;
39448;SDS011;25151;45.566;9.382;2023-02-22T15:47:57;12.98;;;11.57;;
39448;SDS011;25151;45.566;9.382;2023-02-22T15:51:02;11.93;;;10.55;;
39448;SDS011;25151;45.566;9.382;2023-02-22T15:54:11;13.50;;;10.73;;
39448;SDS011;25151;45.566;9.382;2023-02-22T15:57:16;12.32;;;11.02;;
39448;SDS011;25151;45.566;9.382;2023-02-22T16:00:21;11.65;;;10.15;;
39448;SDS011;25151;45.566;9.382;2023-02-22T16:07:30;10.77;;;9.70;;
39448;SDS011;25151;45.566;9.382;2023-02-22T16:10:32;13.70;;;10.75;;
39448;SDS011;25151;45.566;9.382;2023-02-22T16:13:33;11.02;;;9.90;;
39448;SDS011;25151;45.566;9.382;2023-02-22T16:17:09;12.13;;;9.68;;
39448;SDS011;25151;45.566;9.382;2023-02-22T16:24:26;12.35;;;10.70;;
39448;SDS011;25151;45.566;9.382;2023-02-22T16:27:35;11.65;;;10.32;;
39448;SDS011;25151;45.566;9.382;2023-02-22T16:31:21;10.15;;;9.05;;
39448;SDS011;25151;45.566;9.382;2023-02-22T16:34:48;13.90;;;10.13;;
39448;SDS011;25151;45.566;9.382;2023-02-22T16:37:59;11.57;;;9.50;;
39448;SDS011;25151;45.566;9.382;2023-02-22T16:44:55;11.13;;;10.02;;
39448;SDS011;25151;45.566;9.382;2023-02-22T16:48:25;13.15;;;9.38;;
39448;SDS011;25151;45.566;9.382;2023-02-22T16:51:50;10.60;;;9.50;;
39448;SDS011;25151;45.566;9.382;2023-02-22T16:55:36;11.57;;;9.68;;
39448;SDS011;25151;45.566;9.382;2023-02-22T16:58:37;13.80;;;10.15;;
39448;SDS011;25151;45.566;9.382;2023-02-22T17:01:40;10.13;;;9.13;;
39448;SDS011;25151;45.566;9.382;2023-02-22T17:04:41;11.65;;;9.35;;
39448;SDS011;25151;45.566;9.382;2023-02-22T17:07:48;11.68;;;8.98;;
39448;SDS011;25151;45.566;9.382;2023-02-22T17:10:49;10.95;;;9.02;;
39448;SDS011;25151;45.566;9.382;2023-02-22T17:13:55;10.25;;;9.18;;
39448;SDS011;25151;45.566;9.382;2023-02-22T17:16:56;9.68;;;8.32;;
39448;SDS011;25151;45.566;9.382;2023-02-22T17:19:57;9.40;;;8.40;;
39448;SDS011;25151;45.566;9.382;2023-02-22T17:23:07;10.15;;;8.93;;
39448;SDS011;25151;45.566;9.382;2023-02-22T17:26:09;10.07;;;8.88;;
39448;SDS011;25151;45.566;9.382;2023-02-22T17:29:12;15.50;;;9.57;;
39448;SDS011;25151;45.566;9.382;2023-02-22T17:32:14;10.55;;;8.82;;
39448;SDS011;25151;45.566;9.382;2023-02-22T17:35:16;10.05;;;8.77;;
39448;SDS011;25151;45.566;9.382;2023-02-22T17:38:22;10.52;;;9.15;;
39448;SDS011;25151;45.566;9.382;2023-02-22T17:41:26;9.95;;;8.20;;
39448;SDS011;25151;45.566;9.382;2023-02-22T17:44:27;10.52;;;8.73;;
39448;SDS011;25151;45.566;9.382;2023-02-22T17:47:29;11.63;;;9.18;;
39448;SDS011;25151;45.566;9.382;2023-02-22T17:50:30;9.43;;;8.02;;
39448;SDS011;25151;45.566;9.382;2023-02-22T17:53:31;12.93;;;8.77;;
39448;SDS011;25151;45.566;9.382;2023-02-22T17:56:32;11.00;;;8.43;;
39448;SDS011;25151;45.566;9.382;2023-02-22T17:59:34;9.32;;;8.40;;
39448;SDS011;25151;45.566;9.382;2023-02-22T18:02:35;9.80;;;8.80;;
39448;SDS011;25151;45.566;9.382;2023-02-22T18:09:34;11.45;;;9.43;;
39448;SDS011;25151;45.566;9.382;2023-02-22T18:18:04;12.20;;;9.68;;
39448;SDS011;25151;45.566;9.382;2023-02-22T18:21:05;13.63;;;10.23;;
39448;SDS011;25151;45.566;9.382;2023-02-22T18:24:05;12.95;;;10.18;;
39448;SDS011;25151;45.566;9.382;2023-02-22T18:27:06;13.40;;;10.52;;
39448;SDS011;25151;45.566;9.382;2023-02-22T18:30:11;15.50;;;11.80;;
39448;SDS011;25151;45.566;9.382;2023-02-22T18:33:12;13.65;;;10.13;;
39448;SDS011;25151;45.566;9.382;2023-02-22T18:36:17;13.63;;;10.23;;
39448;SDS011;25151;45.566;9.382;2023-02-22T18:39:22;18.40;;;10.45;;
39448;SDS011;25151;45.566;9.382;2023-02-22T18:42:23;13.27;;;10.25;;
39448;SDS011;25151;45.566;9.382;2023-02-22T18:45:25;15.32;;;9.80;;
39448;SDS011;25151;45.566;9.382;2023-02-22T18:48:26;13.55;;;10.15;;
39448;SDS011;25151;45.566;9.382;2023-02-22T18:51:27;11.43;;;9.50;;
39448;SDS011;25151;45.566;9.382;2023-02-22T18:54:29;13.27;;;8.85;;
39448;SDS011;25151;45.566;9.382;2023-02-22T18:57:30;14.23;;;9.98;;
39448;SDS011;25151;45.566;9.382;2023-02-22T19:00:35;12.02;;;9.13;;
39448;SDS011;25151;45.566;9.382;2023-02-22T19:03:39;13.60;;;10.02;;
39448;SDS011;25151;45.566;9.382;2023-02-22T19:06:41;11.10;;;8.82;;
39448;SDS011;25151;45.566;9.382;2023-02-22T19:09:44;12.55;;;8.88;;
39448;SDS011;25151;45.566;9.382;2023-02-22T19:12:46;14.73;;;9.40;;
39448;SDS011;25151;45.566;9.382;2023-02-22T19:15:48;15.23;;;9.30;;
39448;SDS011;25151;45.566;9.382;2023-02-22T19:18:50;13.07;;;9.43;;
39448;SDS011;25151;45.566;9.382;2023-02-22T19:21:56;12.80;;;8.80;;
39448;SDS011;25151;45.566;9.382;2023-02-22T19:24:57;12.13;;;9.05;;
39448;SDS011;25151;45.566;9.382;2023-02-22T19:28:00;13.43;;;9.57;;
39448;SDS011;25151;45.566;9.382;2023-02-22T19:31:11;14.75;;;8.90;;
39448;SDS011;25151;45.566;9.382;2023-02-22T19:34:21;13.68;;;8.77;;
39448;SDS011;25151;45.566;9.382;2023-02-22T19:37:24;10.07;;;8.43;;
39448;SDS011;25151;45.566;9.382;2023-02-22T19:40:27;12.48;;;8.68;;
39448;SDS011;25151;45.566;9.382;2023-02-22T19:43:29;11.90;;;8.55;;
39448;SDS011;25151;45.566;9.382;2023-02-22T19:46:31;9.02;;;8.13;;
39448;SDS011;25151;45.566;9.382;2023-02-22T19:49:32;11.43;;;8.88;;
39448;SDS011;25151;45.566;9.382;2023-02-22T19:52:36;11.95;;;8.35;;
39448;SDS011;25151;45.566;9.382;2023-02-22T19:55:42;13.20;;;9.30;;
39448;SDS011;25151;45.566;9.382;2023-02-22T19:58:48;9.70;;;8.23;;
39448;SDS011;25151;45.566;9.382;2023-02-22T20:01:53;10.65;;;8.50;;
39448;SDS011;25151;45.566;9.382;2023-02-22T20:04:57;11.75;;;9.18;;
39448;SDS011;25151;45.566;9.382;2023-02-22T20:07:58;9.73;;;7.93;;
39448;SDS011;25151;45.566;9.382;2023-02-22T20:11:01;10.90;;;8.65;;
39448;SDS011;25151;45.566;9.382;2023-02-22T20:14:03;11.48;;;8.93;;
39448;SDS011;25151;45.566;9.382;2023-02-22T20:17:05;11.13;;;8.40;;
39448;SDS011;25151;45.566;9.382;2023-02-22T20:20:08;13.27;;;9.05;;
39448;SDS011;25151;45.566;9.382;2023-02-22T20:23:15;11.02;;;8.18;;
39448;SDS011;25151;45.566;9.382;2023-02-22T20:26:18;11.77;;;7.72;;
39448;SDS011;25151;45.566;9.382;2023-02-22T20:29:24;10.07;;;8.13;;
39448;SDS011;25151;45.566;9.382;2023-02-22T20:32:35;11.57;;;8.38;;
39448;SDS011;25151;45.566;9.382;2023-02-22T20:35:38;9.48;;;8.05;;
39448;SDS011;25151;45.566;9.382;2023-02-22T20:38:40;8.98;;;6.85;;
39448;SDS011;25151;45.566;9.382;2023-02-22T20:41:44;11.27;;;8.60;;
39448;SDS011;25151;45.566;9.382;2023-02-22T20:44:47;10.57;;;7.93;;